createdAt,value
2023-04-03T00:00:52.477Z,1.14
2023-04-03T00:06:00.176Z,1.09
2023-04-03T00:11:09.174Z,1.04
2023-04-03T00:16:16.985Z,1.02
2023-04-03T00:21:24.396Z,1.00
2023-04-03T00:26:31.722Z,0.92
2023-04-03T00:31:37.250Z,0.87
2023-04-03T00:36:44.637Z,0.83
2023-04-03T00:41:52.551Z,0.81
2023-04-03T00:46:59.937Z,0.80
2023-04-03T00:52:08.901Z,0.75
2023-04-03T00:57:17.879Z,0.67
2023-04-03T01:02:25.909Z,0.57
2023-04-03T01:07:36.356Z,0.49
2023-04-03T01:12:46.369Z,0.46
2023-04-03T01:17:57.600Z,0.43
2023-04-03T01:23:15.097Z,0.38
2023-04-03T01:28:25.256Z,0.34
2023-04-03T01:33:33.242Z,0.31
2023-04-03T01:38:40.453Z,0.31
2023-04-03T01:43:48.267Z,0.30
2023-04-03T01:48:53.969Z,0.32
2023-04-03T01:54:01.968Z,0.33
2023-04-03T01:59:09.259Z,0.34
2023-04-03T02:04:15.214Z,0.38
2023-04-03T02:09:23.466Z,0.39
2023-04-03T02:14:31.391Z,0.38
2023-04-03T02:19:39.312Z,0.39
2023-04-03T02:24:46.611Z,0.40
2023-04-03T02:29:53.816Z,0.41
2023-04-03T02:34:59.799Z,0.40
2023-04-03T02:40:08.960Z,0.40
2023-04-03T02:49:21.704Z,0.42
2023-04-03T02:54:29.233Z,0.39
2023-04-03T02:59:33.754Z,0.38
2023-04-03T03:04:38.440Z,0.33
2023-04-03T03:09:43.286Z,0.27
2023-04-03T03:14:47.578Z,0.19
2023-04-03T03:19:52.196Z,0.16
2023-04-03T03:24:56.449Z,0.15
2023-04-03T03:30:00.976Z,0.13
2023-04-03T03:35:06.346Z,0.11
2023-04-03T03:40:13.579Z,0.11
2023-04-03T03:45:18.192Z,0.10
2023-04-03T03:50:22.704Z,0.12
2023-04-03T03:55:27.149Z,0.12
2023-04-03T04:00:31.937Z,0.07
2023-04-03T04:05:36.738Z,0.04
2023-04-03T04:10:40.833Z,0.05
2023-04-03T04:15:44.851Z,0.02
2023-04-03T04:20:49.055Z,0.01
2023-04-03T04:25:53.502Z,-0.02
2023-04-03T04:30:58.213Z,-0.06
2023-04-03T04:36:02.736Z,-0.09
2023-04-03T04:41:07.117Z,-0.14
2023-04-03T04:46:12.727Z,-0.13
2023-04-03T04:52:42.963Z,-0.09
2023-04-03T04:57:50.210Z,-0.12
2023-04-03T05:02:55.846Z,-0.16
2023-04-03T05:08:03.901Z,-0.21
2023-04-03T05:13:11.356Z,-0.22
2023-04-03T05:18:17.337Z,-0.21
2023-04-03T05:23:24.391Z,-0.16
2023-04-03T05:28:31.545Z,-0.10
2023-04-03T05:33:38.790Z,-0.08
2023-04-03T05:38:44.313Z,-0.05
2023-04-03T05:49:20.181Z,-0.02
2023-04-03T05:54:26.865Z,-0.08
2023-04-03T05:59:31.448Z,-0.18
2023-04-03T06:04:35.437Z,-0.28
2023-04-03T06:09:39.364Z,-0.42
2023-04-03T06:14:43.275Z,-0.55
2023-04-03T06:19:47.921Z,-0.59
2023-04-03T06:24:51.976Z,-0.63
2023-04-03T06:29:56.738Z,-0.66
2023-04-03T06:35:00.825Z,-0.65
2023-04-03T06:40:06.891Z,-0.61
2023-04-03T06:45:12.261Z,-0.52
2023-04-03T06:50:16.318Z,-0.50
2023-04-03T06:55:20.175Z,-0.48
2023-04-03T07:00:24.305Z,-0.43
2023-04-03T07:05:28.485Z,-0.36
2023-04-03T07:10:32.553Z,-0.34
2023-04-03T07:15:37.680Z,-0.30
2023-04-03T07:20:42.183Z,-0.27
2023-04-03T07:25:46.862Z,-0.25
2023-04-03T07:30:56.326Z,-0.23
2023-04-03T07:36:01.491Z,-0.18
2023-04-03T07:41:07.263Z,-0.02
2023-04-03T07:46:11.832Z,0.15
2023-04-03T07:51:17.021Z,0.23
2023-04-03T07:56:21.860Z,0.26
2023-04-03T08:01:25.985Z,0.38
2023-04-03T08:06:46.022Z,0.47
2023-04-03T08:11:53.700Z,0.59
2023-04-03T08:16:59.041Z,0.70
2023-04-03T08:22:04.086Z,0.54
2023-04-03T08:27:07.969Z,0.52
2023-04-03T08:32:12.052Z,0.52
2023-04-03T08:37:16.933Z,0.65
2023-04-03T08:42:37.020Z,0.76
2023-04-03T08:47:46.626Z,0.70
2023-04-03T08:52:53.569Z,0.73
2023-04-03T08:58:03.240Z,0.70
2023-04-03T09:03:13.286Z,0.60
2023-04-03T09:08:24.497Z,0.55
2023-04-03T09:13:37.353Z,0.45
2023-04-03T09:18:46.796Z,0.26
2023-04-03T09:23:54.045Z,0.12
2023-04-03T09:28:59.585Z,0.03
2023-04-03T09:34:07.720Z,0.02
2023-04-03T09:39:15.606Z,0.06
2023-04-03T09:44:28.146Z,-0.02
2023-04-03T09:49:31.966Z,-0.04
2023-04-03T09:54:40.237Z,0.04
2023-04-03T09:59:59.361Z,0.13
2023-04-03T10:10:23.248Z,0.22
2023-04-03T10:15:29.685Z,0.28
2023-04-03T10:20:40.548Z,0.38
2023-04-03T10:25:56.784Z,0.46
2023-04-03T10:31:11.967Z,0.50
2023-04-03T10:36:24.800Z,0.47
2023-04-03T10:41:39.166Z,0.46
2023-04-03T10:46:49.254Z,0.46
2023-04-03T10:52:01.300Z,0.47
2023-04-03T10:57:12.699Z,0.49
2023-04-03T11:02:26.413Z,0.47
2023-04-03T11:07:39.172Z,0.46
2023-04-03T11:21:29.390Z,0.71
2023-04-03T11:26:42.806Z,0.88
2023-04-03T11:32:12.323Z,1.00
2023-04-03T11:37:28.757Z,1.01
2023-04-03T11:42:40.462Z,1.08
2023-04-03T11:47:52.669Z,1.40
2023-04-03T11:53:05.334Z,1.62
2023-04-03T11:58:23.926Z,1.69
2023-04-03T12:04:07.930Z,1.71
2023-04-03T12:09:29.969Z,1.68
2023-04-03T12:14:37.893Z,1.66
2023-04-03T12:19:48.292Z,1.70
2023-04-03T12:24:56.544Z,1.81
2023-04-03T12:30:15.860Z,2.01
2023-04-03T12:35:30.807Z,2.09
2023-04-03T12:40:45.436Z,2.06
2023-04-03T12:46:01.390Z,2.10
2023-04-03T12:51:09.885Z,2.27
2023-04-03T12:56:30.399Z,2.46
2023-04-03T13:01:39.728Z,2.48
2023-04-03T13:06:48.985Z,2.54
2023-04-03T13:12:01.158Z,2.55
2023-04-03T13:17:16.135Z,2.47
2023-04-03T13:29:40.805Z,2.69
2023-04-03T13:34:48.300Z,2.73
2023-04-03T13:40:12.938Z,2.78
2023-04-03T13:45:30.160Z,2.74
2023-04-03T13:50:36.490Z,2.75
2023-04-03T13:55:58.790Z,2.78
2023-04-03T14:01:13.724Z,2.70
2023-04-03T14:06:21.930Z,2.62
2023-04-03T14:11:35.738Z,2.58
2023-04-03T14:16:47.033Z,2.62
2023-04-03T14:21:55.807Z,2.58
2023-04-03T14:27:14.767Z,2.59
2023-04-03T14:32:26.870Z,2.58
2023-04-03T14:37:35.268Z,2.50
2023-04-03T14:42:43.365Z,2.47
2023-04-03T14:47:53.461Z,2.56
2023-04-03T14:53:02.633Z,2.59
2023-04-03T14:58:14.357Z,2.61
2023-04-03T15:03:24.768Z,2.70
2023-04-03T15:08:32.603Z,2.83
2023-04-03T15:13:40.883Z,2.88
2023-04-03T15:18:50.009Z,2.86
2023-04-03T15:24:00.461Z,2.82
2023-04-03T15:29:10.046Z,2.76
2023-04-03T15:34:18.314Z,2.74
2023-04-03T15:39:26.902Z,2.70
2023-04-03T15:44:36.347Z,2.58
2023-04-03T15:49:44.655Z,2.51
2023-04-03T15:54:52.277Z,2.56
2023-04-03T16:00:00.073Z,2.68
2023-04-03T16:05:09.477Z,2.77
2023-04-03T16:10:20.097Z,2.83
2023-04-03T16:15:28.880Z,2.87
2023-04-03T16:20:37.391Z,2.89
2023-04-03T16:25:47.403Z,2.81
2023-04-03T16:30:55.707Z,2.70
2023-04-03T16:36:04.771Z,2.60
2023-04-03T16:41:14.566Z,2.47
2023-04-03T16:46:22.595Z,2.35
2023-04-03T16:51:30.544Z,2.24
2023-04-03T16:56:38.234Z,2.12
2023-04-03T17:01:45.961Z,2.01
2023-04-03T17:06:54.202Z,1.92
2023-04-03T17:12:01.798Z,1.83
2023-04-03T17:17:11.213Z,1.74
2023-04-03T17:22:21.288Z,1.67
2023-04-03T17:27:28.965Z,1.61
2023-04-03T17:32:39.564Z,1.52
2023-04-03T17:37:51.829Z,1.43
2023-04-03T17:42:59.457Z,1.34
2023-04-03T17:48:07.870Z,1.27
2023-04-03T17:53:16.597Z,1.22
2023-04-03T17:58:24.250Z,1.17
2023-04-03T18:03:32.825Z,1.12
2023-04-03T18:08:43.261Z,1.05
2023-04-03T18:13:51.168Z,0.99
2023-04-03T18:19:17.739Z,0.93
2023-04-03T18:24:28.613Z,0.87
2023-04-03T18:29:39.932Z,0.82
2023-04-03T18:34:47.942Z,0.76
2023-04-03T18:39:55.492Z,0.69
2023-04-03T18:45:07.808Z,0.63
2023-04-03T18:50:17.158Z,0.57
2023-04-03T18:55:25.257Z,0.53
2023-04-03T19:00:33.080Z,0.46
2023-04-03T19:05:41.287Z,0.39
2023-04-03T19:10:49.121Z,0.35
2023-04-03T19:16:00.053Z,0.29
2023-04-03T19:21:08.419Z,0.26
2023-04-03T19:26:16.498Z,0.25
2023-04-03T19:31:24.628Z,0.25
2023-04-03T19:36:32.601Z,0.25
2023-04-03T19:41:41.957Z,0.27
2023-04-03T19:46:51.777Z,0.30
2023-04-03T19:51:59.839Z,0.33
2023-04-03T19:57:08.711Z,0.35
2023-04-03T20:02:18.406Z,0.36
2023-04-03T20:07:26.326Z,0.37
2023-04-03T20:12:36.071Z,0.38
2023-04-03T20:17:43.901Z,0.39
2023-04-03T20:22:54.194Z,0.39
2023-04-03T20:28:01.882Z,0.41
2023-04-03T20:33:09.836Z,0.42
2023-04-03T20:38:17.952Z,0.43
2023-04-03T20:43:25.844Z,0.44
2023-04-03T20:48:36.499Z,0.45
2023-04-03T20:53:45.058Z,0.45
2023-04-03T20:58:54.035Z,0.45
2023-04-03T21:04:06.776Z,0.46
2023-04-03T21:09:50.351Z,0.45
2023-04-03T21:15:34.450Z,0.45
2023-04-03T21:20:44.954Z,0.45
2023-04-03T21:25:54.339Z,0.46
2023-04-03T21:31:02.218Z,0.46
2023-04-03T21:36:11.051Z,0.45
2023-04-03T21:41:18.878Z,0.45
2023-04-03T21:46:26.811Z,0.45
2023-04-03T21:51:35.171Z,0.45
2023-04-03T21:56:42.698Z,0.44
2023-04-03T22:01:52.123Z,0.45
2023-04-03T22:06:59.775Z,0.44
2023-04-03T22:12:09.155Z,0.43
2023-04-03T22:17:17.265Z,0.42
2023-04-03T22:22:26.010Z,0.39
2023-04-03T22:27:34.297Z,0.37
2023-04-03T22:32:42.749Z,0.35
2023-04-03T22:37:51.235Z,0.34
2023-04-03T22:43:00.948Z,0.34
2023-04-03T22:48:10.404Z,0.34
2023-04-03T22:53:18.381Z,0.33
2023-04-03T22:58:27.947Z,0.29
2023-04-03T23:03:36.410Z,0.27
2023-04-03T23:08:44.133Z,0.23
2023-04-03T23:13:51.544Z,0.21
2023-04-03T23:18:59.396Z,0.19
2023-04-03T23:24:08.952Z,0.16
2023-04-03T23:29:18.198Z,0.12
2023-04-03T23:34:25.813Z,0.08
2023-04-03T23:39:33.774Z,0.03
2023-04-03T23:44:41.862Z,-0.01
2023-04-03T23:49:49.565Z,-0.06
2023-04-03T23:54:57.274Z,-0.11
